sensor_id;sensor_type;location;lat;lon;timestamp;P1;durP1;ratioP1;P2;durP2;ratioP2
29960;SDS011;16816;44.444;26.152;2022-09-09T00:00:55;8.23;;;6.28;;
29960;SDS011;16816;44.444;26.152;2022-09-09T00:06:03;8.43;;;6.18;;
29960;SDS011;16816;44.444;26.152;2022-09-09T00:11:11;11.55;;;7.22;;
29960;SDS011;16816;44.444;26.152;2022-09-09T00:16:19;6.95;;;6.30;;
29960;SDS011;16816;44.444;26.152;2022-09-09T00:21:28;7.35;;;6.63;;
29960;SDS011;16816;44.444;26.152;2022-09-09T00:26:36;7.35;;;6.57;;
29960;SDS011;16816;44.444;26.152;2022-09-09T00:31:43;8.65;;;6.10;;
29960;SDS011;16816;44.444;26.152;2022-09-09T00:36:49;8.75;;;6.50;;
29960;SDS011;16816;44.444;26.152;2022-09-09T00:41:57;11.90;;;6.75;;
29960;SDS011;16816;44.444;26.152;2022-09-09T00:47:20;9.23;;;6.53;;
29960;SDS011;16816;44.444;26.152;2022-09-09T00:52:43;8.05;;;6.50;;
29960;SDS011;16816;44.444;26.152;2022-09-09T00:57:51;13.27;;;6.50;;
29960;SDS011;16816;44.444;26.152;2022-09-09T01:03:02;12.02;;;6.10;;
29960;SDS011;16816;44.444;26.152;2022-09-09T01:08:31;8.90;;;6.50;;
29960;SDS011;16816;44.444;26.152;2022-09-09T01:13:56;8.55;;;6.78;;
29960;SDS011;16816;44.444;26.152;2022-09-09T01:19:09;9.07;;;6.43;;
29960;SDS011;16816;44.444;26.152;2022-09-09T01:24:23;7.43;;;6.63;;
29960;SDS011;16816;44.444;26.152;2022-09-09T01:29:48;9.90;;;7.00;;
29960;SDS011;16816;44.444;26.152;2022-09-09T01:34:53;13.55;;;7.85;;
29960;SDS011;16816;44.444;26.152;2022-09-09T01:39:58;10.27;;;8.07;;
29960;SDS011;16816;44.444;26.152;2022-09-09T01:45:03;12.05;;;7.30;;
29960;SDS011;16816;44.444;26.152;2022-09-09T01:50:08;9.13;;;6.40;;
29960;SDS011;16816;44.444;26.152;2022-09-09T01:55:14;9.43;;;7.20;;
29960;SDS011;16816;44.444;26.152;2022-09-09T02:00:20;13.60;;;7.53;;
29960;SDS011;16816;44.444;26.152;2022-09-09T02:05:31;10.57;;;6.78;;
29960;SDS011;16816;44.444;26.152;2022-09-09T02:10:47;11.05;;;7.32;;
29960;SDS011;16816;44.444;26.152;2022-09-09T02:16:11;14.18;;;8.18;;
29960;SDS011;16816;44.444;26.152;2022-09-09T02:21:17;13.73;;;7.90;;
29960;SDS011;16816;44.444;26.152;2022-09-09T02:26:21;13.15;;;7.95;;
29960;SDS011;16816;44.444;26.152;2022-09-09T02:31:35;14.63;;;7.95;;
29960;SDS011;16816;44.444;26.152;2022-09-09T02:36:46;11.98;;;7.10;;
29960;SDS011;16816;44.444;26.152;2022-09-09T02:41:51;14.60;;;7.00;;
29960;SDS011;16816;44.444;26.152;2022-09-09T02:47:07;11.10;;;7.40;;
29960;SDS011;16816;44.444;26.152;2022-09-09T02:52:24;15.02;;;7.10;;
29960;SDS011;16816;44.444;26.152;2022-09-09T02:57:32;10.80;;;6.50;;
29960;SDS011;16816;44.444;26.152;2022-09-09T03:02:40;17.38;;;8.93;;
29960;SDS011;16816;44.444;26.152;2022-09-09T03:12:51;12.65;;;7.90;;
29960;SDS011;16816;44.444;26.152;2022-09-09T03:17:56;11.85;;;7.95;;
29960;SDS011;16816;44.444;26.152;2022-09-09T03:23:00;13.57;;;9.20;;
29960;SDS011;16816;44.444;26.152;2022-09-09T03:28:04;16.85;;;8.20;;
29960;SDS011;16816;44.444;26.152;2022-09-09T03:33:11;13.10;;;8.67;;
29960;SDS011;16816;44.444;26.152;2022-09-09T03:38:18;14.65;;;8.07;;
29960;SDS011;16816;44.444;26.152;2022-09-09T03:43:23;11.73;;;7.95;;
29960;SDS011;16816;44.444;26.152;2022-09-09T03:48:29;15.57;;;8.57;;
29960;SDS011;16816;44.444;26.152;2022-09-09T03:58:40;18.05;;;8.93;;
29960;SDS011;16816;44.444;26.152;2022-09-09T04:03:47;14.27;;;8.73;;
29960;SDS011;16816;44.444;26.152;2022-09-09T04:08:52;18.92;;;8.45;;
29960;SDS011;16816;44.444;26.152;2022-09-09T04:19:05;19.17;;;7.70;;
29960;SDS011;16816;44.444;26.152;2022-09-09T04:24:10;14.48;;;7.53;;
29960;SDS011;16816;44.444;26.152;2022-09-09T04:29:14;10.60;;;7.00;;
29960;SDS011;16816;44.444;26.152;2022-09-09T04:34:19;16.45;;;8.65;;
29960;SDS011;16816;44.444;26.152;2022-09-09T04:39:24;17.50;;;8.48;;
29960;SDS011;16816;44.444;26.152;2022-09-09T04:44:28;15.30;;;8.05;;
29960;SDS011;16816;44.444;26.152;2022-09-09T04:49:35;16.27;;;8.17;;
29960;SDS011;16816;44.444;26.152;2022-09-09T04:54:40;21.27;;;7.82;;
29960;SDS011;16816;44.444;26.152;2022-09-09T04:59:44;15.13;;;7.28;;
29960;SDS011;16816;44.444;26.152;2022-09-09T05:04:50;21.77;;;8.00;;
29960;SDS011;16816;44.444;26.152;2022-09-09T05:09:54;17.73;;;7.63;;
29960;SDS011;16816;44.444;26.152;2022-09-09T05:14:59;22.42;;;7.22;;
29960;SDS011;16816;44.444;26.152;2022-09-09T05:20:08;20.95;;;6.93;;
29960;SDS011;16816;44.444;26.152;2022-09-09T05:25:18;14.98;;;7.10;;
29960;SDS011;16816;44.444;26.152;2022-09-09T05:30:22;13.90;;;6.47;;
29960;SDS011;16816;44.444;26.152;2022-09-09T05:35:30;16.42;;;5.78;;
29960;SDS011;16816;44.444;26.152;2022-09-09T05:40:35;16.40;;;6.25;;
29960;SDS011;16816;44.444;26.152;2022-09-09T05:45:39;16.52;;;5.95;;
29960;SDS011;16816;44.444;26.152;2022-09-09T05:50:52;11.60;;;4.32;;
29960;SDS011;16816;44.444;26.152;2022-09-09T05:56:00;12.57;;;5.40;;
29960;SDS011;16816;44.444;26.152;2022-09-09T06:01:08;16.25;;;5.80;;
29960;SDS011;16816;44.444;26.152;2022-09-09T06:11:20;12.13;;;5.10;;
29960;SDS011;16816;44.444;26.152;2022-09-09T06:16:26;16.08;;;5.70;;
29960;SDS011;16816;44.444;26.152;2022-09-09T06:21:33;7.13;;;3.83;;
29960;SDS011;16816;44.444;26.152;2022-09-09T06:26:41;13.23;;;4.70;;
29960;SDS011;16816;44.444;26.152;2022-09-09T06:31:48;14.32;;;4.40;;
29960;SDS011;16816;44.444;26.152;2022-09-09T06:36:58;8.73;;;3.72;;
29960;SDS011;16816;44.444;26.152;2022-09-09T06:42:09;23.52;;;6.80;;
29960;SDS011;16816;44.444;26.152;2022-09-09T06:47:40;7.97;;;3.90;;
29960;SDS011;16816;44.444;26.152;2022-09-09T06:52:47;9.15;;;4.30;;
29960;SDS011;16816;44.444;26.152;2022-09-09T06:57:51;13.27;;;4.30;;
29960;SDS011;16816;44.444;26.152;2022-09-09T07:02:57;7.30;;;4.25;;
29960;SDS011;16816;44.444;26.152;2022-09-09T07:08:03;8.17;;;4.03;;
29960;SDS011;16816;44.444;26.152;2022-09-09T07:13:08;10.68;;;4.30;;
29960;SDS011;16816;44.444;26.152;2022-09-09T07:18:13;10.18;;;4.20;;
29960;SDS011;16816;44.444;26.152;2022-09-09T07:23:19;15.77;;;4.28;;
29960;SDS011;16816;44.444;26.152;2022-09-09T07:28:23;8.32;;;3.97;;
29960;SDS011;16816;44.444;26.152;2022-09-09T07:33:27;11.75;;;4.15;;
29960;SDS011;16816;44.444;26.152;2022-09-09T07:38:36;13.87;;;5.50;;
29960;SDS011;16816;44.444;26.152;2022-09-09T07:43:42;11.18;;;4.25;;
29960;SDS011;16816;44.444;26.152;2022-09-09T07:48:48;13.75;;;4.57;;
29960;SDS011;16816;44.444;26.152;2022-09-09T07:53:59;11.52;;;5.65;;
29960;SDS011;16816;44.444;26.152;2022-09-09T07:59:06;12.32;;;4.25;;
29960;SDS011;16816;44.444;26.152;2022-09-09T08:04:14;9.85;;;4.57;;
29960;SDS011;16816;44.444;26.152;2022-09-09T08:09:23;9.70;;;4.15;;
29960;SDS011;16816;44.444;26.152;2022-09-09T08:14:31;11.90;;;4.43;;
29960;SDS011;16816;44.444;26.152;2022-09-09T08:19:36;8.00;;;4.53;;
29960;SDS011;16816;44.444;26.152;2022-09-09T08:24:47;14.35;;;4.97;;
29960;SDS011;16816;44.444;26.152;2022-09-09T08:29:52;11.30;;;5.15;;
29960;SDS011;16816;44.444;26.152;2022-09-09T08:34:58;9.30;;;4.57;;
29960;SDS011;16816;44.444;26.152;2022-09-09T08:40:07;9.50;;;4.40;;
29960;SDS011;16816;44.444;26.152;2022-09-09T08:45:22;10.68;;;4.10;;
29960;SDS011;16816;44.444;26.152;2022-09-09T08:50:32;9.20;;;3.83;;
29960;SDS011;16816;44.444;26.152;2022-09-09T08:55:44;11.02;;;4.60;;
29960;SDS011;16816;44.444;26.152;2022-09-09T09:01:00;18.77;;;5.15;;
29960;SDS011;16816;44.444;26.152;2022-09-09T09:06:15;15.27;;;4.70;;
29960;SDS011;16816;44.444;26.152;2022-09-09T09:11:35;13.90;;;6.72;;
29960;SDS011;16816;44.444;26.152;2022-09-09T09:16:42;14.38;;;5.22;;
29960;SDS011;16816;44.444;26.152;2022-09-09T09:21:53;13.98;;;4.30;;
29960;SDS011;16816;44.444;26.152;2022-09-09T09:27:04;12.75;;;4.15;;
29960;SDS011;16816;44.444;26.152;2022-09-09T09:32:19;26.30;;;5.00;;
29960;SDS011;16816;44.444;26.152;2022-09-09T09:37:26;15.70;;;4.28;;
29960;SDS011;16816;44.444;26.152;2022-09-09T09:42:35;10.00;;;4.68;;
29960;SDS011;16816;44.444;26.152;2022-09-09T09:47:39;7.97;;;4.13;;
29960;SDS011;16816;44.444;26.152;2022-09-09T09:52:53;15.18;;;4.88;;
29960;SDS011;16816;44.444;26.152;2022-09-09T09:58:05;9.80;;;3.97;;
29960;SDS011;16816;44.444;26.152;2022-09-09T10:03:18;10.77;;;3.55;;
29960;SDS011;16816;44.444;26.152;2022-09-09T10:08:27;4.65;;;4.05;;
29960;SDS011;16816;44.444;26.152;2022-09-09T10:13:34;11.50;;;3.97;;
29960;SDS011;16816;44.444;26.152;2022-09-09T10:18:45;8.20;;;4.00;;
29960;SDS011;16816;44.444;26.152;2022-09-09T10:24:01;8.80;;;4.90;;
29960;SDS011;16816;44.444;26.152;2022-09-09T10:29:28;11.73;;;4.00;;
29960;SDS011;16816;44.444;26.152;2022-09-09T10:34:47;7.72;;;4.50;;
29960;SDS011;16816;44.444;26.152;2022-09-09T10:40:00;11.77;;;3.70;;
29960;SDS011;16816;44.444;26.152;2022-09-09T10:45:15;8.20;;;4.10;;
29960;SDS011;16816;44.444;26.152;2022-09-09T10:50:29;9.80;;;4.03;;
29960;SDS011;16816;44.444;26.152;2022-09-09T10:56:06;11.57;;;3.70;;
29960;SDS011;16816;44.444;26.152;2022-09-09T11:01:15;11.05;;;3.58;;
29960;SDS011;16816;44.444;26.152;2022-09-09T11:06:23;12.98;;;3.95;;
29960;SDS011;16816;44.444;26.152;2022-09-09T11:11:34;9.98;;;3.50;;
29960;SDS011;16816;44.444;26.152;2022-09-09T11:16:42;8.50;;;5.07;;
29960;SDS011;16816;44.444;26.152;2022-09-09T11:21:52;16.10;;;4.90;;
29960;SDS011;16816;44.444;26.152;2022-09-09T11:26:57;15.70;;;3.92;;
29960;SDS011;16816;44.444;26.152;2022-09-09T11:32:09;12.30;;;4.00;;
29960;SDS011;16816;44.444;26.152;2022-09-09T11:37:47;12.13;;;4.22;;
29960;SDS011;16816;44.444;26.152;2022-09-09T11:43:01;13.15;;;4.93;;
29960;SDS011;16816;44.444;26.152;2022-09-09T11:48:21;8.13;;;3.90;;
29960;SDS011;16816;44.444;26.152;2022-09-09T11:53:27;13.18;;;5.43;;
29960;SDS011;16816;44.444;26.152;2022-09-09T11:58:33;10.48;;;4.82;;
29960;SDS011;16816;44.444;26.152;2022-09-09T12:03:43;9.20;;;3.83;;
29960;SDS011;16816;44.444;26.152;2022-09-09T12:08:51;11.35;;;4.38;;
29960;SDS011;16816;44.444;26.152;2022-09-09T12:13:59;17.13;;;5.05;;
29960;SDS011;16816;44.444;26.152;2022-09-09T12:19:06;10.65;;;4.68;;
29960;SDS011;16816;44.444;26.152;2022-09-09T12:24:19;10.35;;;5.07;;
29960;SDS011;16816;44.444;26.152;2022-09-09T12:29:31;17.65;;;4.75;;
29960;SDS011;16816;44.444;26.152;2022-09-09T12:34:42;13.90;;;4.22;;
29960;SDS011;16816;44.444;26.152;2022-09-09T12:39:49;8.20;;;4.93;;
29960;SDS011;16816;44.444;26.152;2022-09-09T12:44:56;16.92;;;5.60;;
29960;SDS011;16816;44.444;26.152;2022-09-09T12:50:02;12.93;;;4.03;;
29960;SDS011;16816;44.444;26.152;2022-09-09T12:55:06;11.93;;;4.85;;
29960;SDS011;16816;44.444;26.152;2022-09-09T13:00:13;11.25;;;4.63;;
29960;SDS011;16816;44.444;26.152;2022-09-09T13:05:22;8.95;;;4.68;;
29960;SDS011;16816;44.444;26.152;2022-09-09T13:10:27;9.70;;;4.82;;
29960;SDS011;16816;44.444;26.152;2022-09-09T13:15:48;17.77;;;5.50;;
29960;SDS011;16816;44.444;26.152;2022-09-09T13:20:54;11.80;;;6.13;;
29960;SDS011;16816;44.444;26.152;2022-09-09T13:26:00;11.40;;;5.25;;
29960;SDS011;16816;44.444;26.152;2022-09-09T13:31:19;21.50;;;12.93;;
29960;SDS011;16816;44.444;26.152;2022-09-09T13:36:30;17.40;;;6.40;;
29960;SDS011;16816;44.444;26.152;2022-09-09T13:41:35;13.93;;;5.30;;
29960;SDS011;16816;44.444;26.152;2022-09-09T13:46:41;16.23;;;5.43;;
29960;SDS011;16816;44.444;26.152;2022-09-09T13:51:48;11.90;;;5.90;;
29960;SDS011;16816;44.444;26.152;2022-09-09T13:56:52;16.17;;;6.03;;
29960;SDS011;16816;44.444;26.152;2022-09-09T14:01:57;17.02;;;6.15;;
29960;SDS011;16816;44.444;26.152;2022-09-09T14:07:02;17.67;;;7.30;;
29960;SDS011;16816;44.444;26.152;2022-09-09T14:12:08;16.40;;;5.63;;
29960;SDS011;16816;44.444;26.152;2022-09-09T14:17:12;11.20;;;5.53;;
29960;SDS011;16816;44.444;26.152;2022-09-09T14:22:17;18.98;;;6.53;;
29960;SDS011;16816;44.444;26.152;2022-09-09T14:27:21;16.05;;;6.65;;
29960;SDS011;16816;44.444;26.152;2022-09-09T14:32:28;11.23;;;5.63;;
29960;SDS011;16816;44.444;26.152;2022-09-09T14:37:33;14.35;;;5.78;;
29960;SDS011;16816;44.444;26.152;2022-09-09T14:42:37;14.77;;;5.45;;
29960;SDS011;16816;44.444;26.152;2022-09-09T14:47:41;16.55;;;6.50;;
29960;SDS011;16816;44.444;26.152;2022-09-09T14:52:46;14.20;;;6.13;;
29960;SDS011;16816;44.444;26.152;2022-09-09T14:57:50;14.15;;;5.60;;
29960;SDS011;16816;44.444;26.152;2022-09-09T15:02:54;14.35;;;5.60;;
29960;SDS011;16816;44.444;26.152;2022-09-09T15:08:00;12.57;;;6.60;;
29960;SDS011;16816;44.444;26.152;2022-09-09T15:13:04;13.82;;;5.88;;
29960;SDS011;16816;44.444;26.152;2022-09-09T15:18:08;16.45;;;6.05;;
29960;SDS011;16816;44.444;26.152;2022-09-09T15:23:13;11.65;;;5.97;;
29960;SDS011;16816;44.444;26.152;2022-09-09T15:28:19;15.82;;;6.32;;
29960;SDS011;16816;44.444;26.152;2022-09-09T15:33:23;12.90;;;6.20;;
29960;SDS011;16816;44.444;26.152;2022-09-09T15:38:30;17.60;;;6.38;;
29960;SDS011;16816;44.444;26.152;2022-09-09T15:43:34;15.93;;;5.93;;
29960;SDS011;16816;44.444;26.152;2022-09-09T15:48:39;16.23;;;6.28;;
29960;SDS011;16816;44.444;26.152;2022-09-09T15:53:44;7.72;;;6.30;;
29960;SDS011;16816;44.444;26.152;2022-09-09T15:58:48;21.88;;;7.63;;
29960;SDS011;16816;44.444;26.152;2022-09-09T16:03:52;16.17;;;6.53;;
29960;SDS011;16816;44.444;26.152;2022-09-09T16:08:58;11.82;;;6.25;;
29960;SDS011;16816;44.444;26.152;2022-09-09T16:14:03;13.43;;;6.82;;
29960;SDS011;16816;44.444;26.152;2022-09-09T16:19:09;16.85;;;6.15;;
29960;SDS011;16816;44.444;26.152;2022-09-09T16:24:17;14.13;;;6.65;;
29960;SDS011;16816;44.444;26.152;2022-09-09T16:29:21;24.55;;;8.07;;
29960;SDS011;16816;44.444;26.152;2022-09-09T16:34:26;16.57;;;8.50;;
29960;SDS011;16816;44.444;26.152;2022-09-09T16:39:31;15.90;;;7.60;;
29960;SDS011;16816;44.444;26.152;2022-09-09T16:49:39;11.40;;;7.45;;
29960;SDS011;16816;44.444;26.152;2022-09-09T16:54:44;15.43;;;6.95;;
29960;SDS011;16816;44.444;26.152;2022-09-09T16:59:48;14.20;;;7.38;;
29960;SDS011;16816;44.444;26.152;2022-09-09T17:04:52;22.27;;;8.20;;
29960;SDS011;16816;44.444;26.152;2022-09-09T17:09:57;11.05;;;7.57;;
29960;SDS011;16816;44.444;26.152;2022-09-09T17:15:01;14.32;;;7.57;;
29960;SDS011;16816;44.444;26.152;2022-09-09T17:20:06;18.20;;;8.53;;
29960;SDS011;16816;44.444;26.152;2022-09-09T17:25:13;18.77;;;8.80;;
29960;SDS011;16816;44.444;26.152;2022-09-09T17:30:16;13.88;;;8.13;;
29960;SDS011;16816;44.444;26.152;2022-09-09T17:35:21;17.70;;;7.57;;
29960;SDS011;16816;44.444;26.152;2022-09-09T17:40:26;14.23;;;7.03;;
29960;SDS011;16816;44.444;26.152;2022-09-09T17:45:30;13.13;;;7.90;;
29960;SDS011;16816;44.444;26.152;2022-09-09T17:50:34;17.85;;;8.23;;
29960;SDS011;16816;44.444;26.152;2022-09-09T17:55:40;21.83;;;7.28;;
29960;SDS011;16816;44.444;26.152;2022-09-09T18:00:44;18.00;;;8.52;;
29960;SDS011;16816;44.444;26.152;2022-09-09T18:05:48;16.73;;;8.10;;
29960;SDS011;16816;44.444;26.152;2022-09-09T18:10:54;17.65;;;8.50;;
29960;SDS011;16816;44.444;26.152;2022-09-09T18:21:02;14.68;;;8.00;;
29960;SDS011;16816;44.444;26.152;2022-09-09T18:26:09;9.48;;;7.63;;
29960;SDS011;16816;44.444;26.152;2022-09-09T18:31:15;20.08;;;9.25;;
29960;SDS011;16816;44.444;26.152;2022-09-09T18:36:21;14.65;;;7.68;;
29960;SDS011;16816;44.444;26.152;2022-09-09T18:41:35;14.70;;;7.53;;
29960;SDS011;16816;44.444;26.152;2022-09-09T18:46:43;24.83;;;11.27;;
29960;SDS011;16816;44.444;26.152;2022-09-09T18:51:47;13.05;;;9.57;;
29960;SDS011;16816;44.444;26.152;2022-09-09T18:56:53;13.30;;;7.05;;
29960;SDS011;16816;44.444;26.152;2022-09-09T19:07:00;15.10;;;8.13;;
29960;SDS011;16816;44.444;26.152;2022-09-09T19:12:06;11.82;;;7.40;;
29960;SDS011;16816;44.444;26.152;2022-09-09T19:17:10;20.23;;;7.22;;
29960;SDS011;16816;44.444;26.152;2022-09-09T19:22:14;20.52;;;10.00;;
29960;SDS011;16816;44.444;26.152;2022-09-09T19:27:20;15.32;;;9.30;;
29960;SDS011;16816;44.444;26.152;2022-09-09T19:32:24;17.38;;;8.93;;
29960;SDS011;16816;44.444;26.152;2022-09-09T19:37:48;19.92;;;12.52;;
29960;SDS011;16816;44.444;26.152;2022-09-09T19:42:53;15.23;;;8.10;;
29960;SDS011;16816;44.444;26.152;2022-09-09T19:47:57;14.73;;;8.90;;
29960;SDS011;16816;44.444;26.152;2022-09-09T19:53:01;16.33;;;8.88;;
29960;SDS011;16816;44.444;26.152;2022-09-09T19:58:06;21.02;;;8.60;;
29960;SDS011;16816;44.444;26.152;2022-09-09T20:03:10;16.65;;;9.23;;
29960;SDS011;16816;44.444;26.152;2022-09-09T20:08:20;16.98;;;9.57;;
29960;SDS011;16816;44.444;26.152;2022-09-09T20:13:25;19.05;;;9.80;;
29960;SDS011;16816;44.444;26.152;2022-09-09T20:18:30;14.90;;;10.23;;
29960;SDS011;16816;44.444;26.152;2022-09-09T20:23:34;19.63;;;9.73;;
29960;SDS011;16816;44.444;26.152;2022-09-09T20:28:40;21.03;;;9.53;;
29960;SDS011;16816;44.444;26.152;2022-09-09T20:33:44;17.15;;;8.82;;
29960;SDS011;16816;44.444;26.152;2022-09-09T20:38:49;13.32;;;8.43;;
29960;SDS011;16816;44.444;26.152;2022-09-09T20:43:56;16.67;;;9.18;;
29960;SDS011;16816;44.444;26.152;2022-09-09T20:49:03;18.83;;;9.13;;
29960;SDS011;16816;44.444;26.152;2022-09-09T20:54:08;19.92;;;9.88;;
29960;SDS011;16816;44.444;26.152;2022-09-09T20:59:17;18.70;;;10.07;;
29960;SDS011;16816;44.444;26.152;2022-09-09T21:04:21;17.33;;;9.52;;
29960;SDS011;16816;44.444;26.152;2022-09-09T21:09:26;20.88;;;9.10;;
29960;SDS011;16816;44.444;26.152;2022-09-09T21:14:31;16.90;;;9.63;;
29960;SDS011;16816;44.444;26.152;2022-09-09T21:19:35;16.42;;;9.98;;
29960;SDS011;16816;44.444;26.152;2022-09-09T21:24:39;17.83;;;10.20;;
29960;SDS011;16816;44.444;26.152;2022-09-09T21:29:44;27.40;;;10.38;;
29960;SDS011;16816;44.444;26.152;2022-09-09T21:34:48;20.60;;;10.65;;
29960;SDS011;16816;44.444;26.152;2022-09-09T21:39:52;19.00;;;10.38;;
29960;SDS011;16816;44.444;26.152;2022-09-09T21:44:58;16.23;;;10.20;;
29960;SDS011;16816;44.444;26.152;2022-09-09T21:50:02;16.77;;;10.10;;
29960;SDS011;16816;44.444;26.152;2022-09-09T21:55:06;16.15;;;8.77;;
29960;SDS011;16816;44.444;26.152;2022-09-09T22:00:12;19.83;;;9.80;;
29960;SDS011;16816;44.444;26.152;2022-09-09T22:05:18;15.82;;;9.15;;
29960;SDS011;16816;44.444;26.152;2022-09-09T22:10:22;15.52;;;7.72;;
29960;SDS011;16816;44.444;26.152;2022-09-09T22:20:37;12.80;;;7.90;;
29960;SDS011;16816;44.444;26.152;2022-09-09T22:25:43;14.70;;;8.32;;
29960;SDS011;16816;44.444;26.152;2022-09-09T22:30:48;9.68;;;7.20;;
29960;SDS011;16816;44.444;26.152;2022-09-09T22:35:52;8.88;;;6.35;;
29960;SDS011;16816;44.444;26.152;2022-09-09T22:40:56;10.82;;;5.18;;
29960;SDS011;16816;44.444;26.152;2022-09-09T22:46:02;12.00;;;5.45;;
29960;SDS011;16816;44.444;26.152;2022-09-09T22:51:07;10.35;;;5.70;;
29960;SDS011;16816;44.444;26.152;2022-09-09T22:56:13;9.55;;;5.18;;
29960;SDS011;16816;44.444;26.152;2022-09-09T23:01:21;8.98;;;4.78;;
29960;SDS011;16816;44.444;26.152;2022-09-09T23:06:26;9.30;;;4.50;;
29960;SDS011;16816;44.444;26.152;2022-09-09T23:11:30;7.57;;;3.85;;
29960;SDS011;16816;44.444;26.152;2022-09-09T23:16:37;4.90;;;3.63;;
29960;SDS011;16816;44.444;26.152;2022-09-09T23:21:43;8.38;;;3.60;;
29960;SDS011;16816;44.444;26.152;2022-09-09T23:26:48;5.18;;;3.70;;
29960;SDS011;16816;44.444;26.152;2022-09-09T23:31:53;5.47;;;3.17;;
29960;SDS011;16816;44.444;26.152;2022-09-09T23:36:57;4.90;;;3.22;;
29960;SDS011;16816;44.444;26.152;2022-09-09T23:42:01;4.43;;;3.10;;
29960;SDS011;16816;44.444;26.152;2022-09-09T23:47:08;5.57;;;3.65;;
29960;SDS011;16816;44.444;26.152;2022-09-09T23:52:12;10.97;;;3.17;;
29960;SDS011;16816;44.444;26.152;2022-09-09T23:57:16;5.25;;;3.17;;
